KBKW/BKW METAR and TAF weather

Enter ICAO airport designator
Station Type Date Time Source
KBKW METAR 2018/04/23 10:51 UTC NOAA

KBKW 231051Z AUTO 14013G26KT 10SM CLR 11/07 A3021 RMK AO2 PK WND 12026/1044 SLP216 T01110067 TSNO


Station Type Date Time Source
KBKW Decoded METAR 2018/04/23 10:51 UTC NOAA

RALEIGH COUNTY MEM AIRPORT , WV, United States (KBKW) 37-48N 081-07W 764M
Apr 23, 2018 - 06:51 AM EDT / 2018.04.23 1051 UTC
Wind: from the SE (140 degrees) at 15 MPH (13 KT) gusting to 30 MPH (26 KT):0
Visibility: 10 mile(s):0
Sky conditions: clear
Temperature: 52.0 F (11.1 C)
Dew Point: 44.1 F (6.7 C)
Relative Humidity: 74%
Pressure (altimeter): 30.21 in. Hg (1023 hPa)
ob: KBKW 231051Z AUTO 14013G26KT 10SM CLR 11/07 A3021 RMK AO2 PK WND 12026/1044 SLP216 T01110067 TSNO
cycle: 11

Station Type Date Time Source
KBKW TAF 2018/04/23 12:22 UTC NOAA

TAF KBKW 231120Z 2312/2412 13014G24KT P6SM FEW025 BKN200
FM231500 13020G32KT P6SM -SHRA BKN025 OVC060
FM240000 13022G39KT P6SM OVC015
FM240500 13020G30KT P6SM OVC015
FM240900 12022KT P6SM OVC008


Example: see airport list